createdAt,value
2023-01-24T00:00:13.016Z,48.95
2023-01-24T00:02:43.749Z,41.35
2023-01-24T00:05:14.792Z,45.12
2023-01-24T00:07:45.611Z,37.95
2023-01-24T00:10:17.074Z,39.75
2023-01-24T00:12:48.113Z,45.80
2023-01-24T00:15:19.279Z,39.90
2023-01-24T00:17:50.758Z,40.25
2023-01-24T00:20:27.497Z,44.58
2023-01-24T00:22:58.318Z,45.03
2023-01-24T00:25:29.664Z,39.92
2023-01-24T00:28:00.467Z,46.85
2023-01-24T00:30:31.248Z,34.92
2023-01-24T00:33:02.749Z,38.80
2023-01-24T00:35:33.724Z,42.30
2023-01-24T00:38:04.436Z,37.53
2023-01-24T00:40:35.128Z,52.98
2023-01-24T00:43:05.978Z,39.03
2023-01-24T00:45:40.802Z,32.90
2023-01-24T00:48:13.402Z,36.08
2023-01-24T00:50:44.230Z,33.10
2023-01-24T00:53:15.226Z,36.55
2023-01-24T00:55:47.872Z,32.28
2023-01-24T00:58:19.107Z,33.23
2023-01-24T01:00:50.083Z,31.52
2023-01-24T01:03:22.686Z,30.10
2023-01-24T01:05:55.202Z,27.98
2023-01-24T01:08:26.076Z,29.52
2023-01-24T01:10:57.056Z,30.37
2023-01-24T01:13:28.944Z,25.72
2023-01-24T01:16:10.740Z,22.75
2023-01-24T01:18:42.237Z,24.77
2023-01-24T01:21:15.244Z,26.77
2023-01-24T01:23:46.248Z,27.15
2023-01-24T01:26:24.992Z,31.27
2023-01-24T01:28:55.892Z,20.62
2023-01-24T01:31:26.838Z,22.42
2023-01-24T01:33:57.735Z,21.35
2023-01-24T01:36:28.656Z,23.83
2023-01-24T01:39:01.141Z,26.52
2023-01-24T01:41:32.241Z,27.48
2023-01-24T01:44:37.970Z,27.15
2023-01-24T01:47:33.752Z,27.85
2023-01-24T01:50:12.878Z,27.58
2023-01-24T01:52:47.087Z,24.50
2023-01-24T01:55:21.140Z,25.97
2023-01-24T01:57:54.314Z,22.62
2023-01-24T02:00:27.362Z,22.35
2023-01-24T02:03:29.857Z,25.08
2023-01-24T02:06:04.122Z,21.82
2023-01-24T02:08:36.603Z,25.20
2023-01-24T02:11:26.441Z,21.70
2023-01-24T02:13:58.920Z,22.50
2023-01-24T02:16:29.735Z,22.62
2023-01-24T02:19:00.495Z,21.60
2023-01-24T02:21:31.477Z,20.20
2023-01-24T02:24:12.420Z,20.17
2023-01-24T02:26:44.084Z,23.95
2023-01-24T02:29:17.517Z,19.60
2023-01-24T02:32:00.073Z,20.65
2023-01-24T02:34:31.786Z,17.37
2023-01-24T02:37:05.078Z,15.53
2023-01-24T02:39:50.314Z,18.98
2023-01-24T02:42:24.859Z,20.70
2023-01-24T02:45:16.125Z,19.92
2023-01-24T02:47:49.347Z,17.77
2023-01-24T02:50:25.174Z,19.32
2023-01-24T02:53:13.114Z,15.25
2023-01-24T02:56:01.531Z,16.48
2023-01-24T02:58:32.971Z,16.35
2023-01-24T03:01:03.691Z,16.55
2023-01-24T03:03:34.620Z,17.32
2023-01-24T03:06:05.517Z,20.17
2023-01-24T03:08:37.757Z,17.80
2023-01-24T03:11:09.062Z,19.60
2023-01-24T03:13:57.637Z,15.00
2023-01-24T03:16:46.168Z,14.30
2023-01-24T03:19:37.577Z,20.77
2023-01-24T03:22:25.850Z,19.25
2023-01-24T03:25:14.301Z,15.98
2023-01-24T03:28:02.587Z,12.70
2023-01-24T03:30:51.008Z,12.43
2023-01-24T03:33:39.759Z,16.42
2023-01-24T03:36:12.139Z,17.30
2023-01-24T03:39:00.898Z,13.08
2023-01-24T03:41:31.583Z,13.28
2023-01-24T03:44:02.371Z,12.00
2023-01-24T03:46:34.754Z,10.63
2023-01-24T03:49:05.714Z,11.33
2023-01-24T03:51:54.544Z,13.58
2023-01-24T03:54:25.481Z,12.35
2023-01-24T03:56:56.275Z,10.95
2023-01-24T03:59:27.262Z,12.20
2023-01-24T04:01:58.032Z,10.82
2023-01-24T04:04:30.329Z,17.02
2023-01-24T04:07:01.761Z,9.48
2023-01-24T04:09:34.542Z,13.80
2023-01-24T04:12:10.958Z,10.43
2023-01-24T04:14:42.693Z,11.93
2023-01-24T04:17:18.823Z,8.35
2023-01-24T04:19:49.901Z,12.03
2023-01-24T04:22:22.858Z,22.10
2023-01-24T04:24:55.785Z,9.43
2023-01-24T04:27:26.832Z,11.28
2023-01-24T04:29:59.624Z,17.37
2023-01-24T04:32:31.576Z,13.10
2023-01-24T04:35:05.524Z,13.43
2023-01-24T04:37:43.246Z,12.37
2023-01-24T04:40:20.133Z,9.28
2023-01-24T04:42:51.079Z,13.22
2023-01-24T04:45:22.068Z,15.25
2023-01-24T04:47:53.488Z,16.55
2023-01-24T04:50:23.691Z,10.70
2023-01-24T04:52:54.597Z,14.05
2023-01-24T04:55:25.650Z,20.17
2023-01-24T04:57:56.597Z,12.03
2023-01-24T05:00:27.783Z,14.68
2023-01-24T05:02:58.646Z,9.68
2023-01-24T05:05:29.395Z,9.48
2023-01-24T05:08:00.592Z,11.53
2023-01-24T05:10:50.624Z,8.48
2023-01-24T05:13:22.422Z,9.90
2023-01-24T05:15:54.963Z,10.88
2023-01-24T05:18:25.952Z,11.50
2023-01-24T05:20:57.419Z,10.15
2023-01-24T05:23:28.456Z,15.68
2023-01-24T05:26:03.650Z,10.03
2023-01-24T05:28:37.253Z,28.90
2023-01-24T05:31:10.498Z,15.23
2023-01-24T05:33:41.476Z,7.85
2023-01-24T05:36:17.483Z,10.10
2023-01-24T05:38:48.938Z,10.30
2023-01-24T05:41:21.611Z,9.13
2023-01-24T05:43:55.724Z,14.20
2023-01-24T05:46:27.223Z,9.05
2023-01-24T05:48:58.222Z,8.40
2023-01-24T05:51:32.664Z,10.90
2023-01-24T05:54:08.634Z,14.90
2023-01-24T05:56:48.562Z,14.68
2023-01-24T05:59:24.197Z,11.88
2023-01-24T06:01:55.322Z,9.13
2023-01-24T06:04:26.836Z,7.28
2023-01-24T06:06:57.818Z,8.18
2023-01-24T06:09:29.026Z,9.60
2023-01-24T06:12:01.019Z,6.35
2023-01-24T06:14:31.976Z,8.63
2023-01-24T06:17:02.965Z,6.40
2023-01-24T06:19:34.759Z,8.58
2023-01-24T06:22:08.055Z,9.63
2023-01-24T06:24:39.569Z,6.92
2023-01-24T06:27:11.892Z,7.15
2023-01-24T06:29:43.317Z,8.93
2023-01-24T06:32:28.441Z,11.63
2023-01-24T06:35:27.364Z,9.90
2023-01-24T06:38:00.308Z,7.12
2023-01-24T06:40:32.652Z,6.47
2023-01-24T06:43:04.011Z,12.23
2023-01-24T06:45:36.944Z,7.25
2023-01-24T06:48:08.422Z,7.70
2023-01-24T06:50:39.383Z,7.15
2023-01-24T06:53:10.336Z,12.50
2023-01-24T06:55:41.363Z,7.10
2023-01-24T06:58:12.619Z,7.53
2023-01-24T07:00:43.586Z,10.82
2023-01-24T07:03:14.603Z,7.45
2023-01-24T07:05:45.706Z,6.72
2023-01-24T07:08:18.529Z,9.08
2023-01-24T07:10:49.389Z,6.58
2023-01-24T07:13:20.598Z,7.45
2023-01-24T07:15:51.568Z,7.85
2023-01-24T07:18:23.662Z,8.05
2023-01-24T07:20:55.380Z,8.15
2023-01-24T07:23:30.491Z,10.13
2023-01-24T07:26:02.500Z,9.10
2023-01-24T07:28:33.509Z,9.98
2023-01-24T07:31:05.387Z,9.78
2023-01-24T07:33:39.709Z,9.73
2023-01-24T07:36:26.390Z,9.05
2023-01-24T07:38:58.177Z,10.00
2023-01-24T07:41:29.262Z,8.45
2023-01-24T07:44:00.228Z,10.32
2023-01-24T07:46:31.286Z,12.18
2023-01-24T07:49:02.738Z,7.78
2023-01-24T07:51:33.681Z,11.65
2023-01-24T07:54:04.990Z,9.60
2023-01-24T07:56:35.940Z,11.38
2023-01-24T07:59:07.139Z,13.55
2023-01-24T08:01:38.260Z,10.03
2023-01-24T08:04:09.557Z,7.20
2023-01-24T08:06:43.631Z,9.35
2023-01-24T08:09:14.572Z,9.45
2023-01-24T08:11:45.871Z,11.40
2023-01-24T08:14:24.973Z,9.03
2023-01-24T08:16:56.314Z,12.85
2023-01-24T08:19:49.630Z,10.85
2023-01-24T08:21:59.796Z,11.95
2023-01-24T08:24:30.725Z,8.98
2023-01-24T08:27:03.141Z,7.85
2023-01-24T08:29:36.448Z,7.83
2023-01-24T08:32:13.880Z,9.88
2023-01-24T08:34:44.891Z,10.20
2023-01-24T08:37:15.872Z,14.55
2023-01-24T08:39:46.988Z,8.40
2023-01-24T08:42:19.146Z,9.88
2023-01-24T08:44:50.073Z,11.85
2023-01-24T08:47:22.620Z,11.95
2023-01-24T08:49:53.567Z,9.93
2023-01-24T08:52:24.684Z,10.05
2023-01-24T08:54:55.677Z,9.25
2023-01-24T08:57:27.027Z,13.20
2023-01-24T08:59:59.149Z,7.42
2023-01-24T09:02:31.297Z,11.50
2023-01-24T09:05:02.599Z,12.30
2023-01-24T09:07:34.923Z,15.10
2023-01-24T09:10:07.997Z,10.50
2023-01-24T09:12:38.942Z,8.88
2023-01-24T09:18:04.698Z,6.87
2023-01-24T09:20:36.581Z,7.90
2023-01-24T09:23:16.637Z,9.98
2023-01-24T09:25:55.247Z,10.08
2023-01-24T09:28:26.169Z,7.08
2023-01-24T09:30:57.558Z,8.50
2023-01-24T09:33:28.748Z,7.65
2023-01-24T09:36:02.147Z,11.08
2023-01-24T09:38:37.531Z,8.85
2023-01-24T09:41:13.700Z,9.45
2023-01-24T09:43:50.768Z,10.17
2023-01-24T09:46:30.891Z,9.60
2023-01-24T09:49:11.523Z,6.67
2023-01-24T09:51:49.105Z,11.28
2023-01-24T09:54:37.945Z,8.63
2023-01-24T09:57:17.197Z,8.95
2023-01-24T09:59:53.747Z,7.35
2023-01-24T10:02:26.893Z,10.30
2023-01-24T10:04:58.300Z,6.15
2023-01-24T10:07:49.856Z,7.80
2023-01-24T10:10:35.186Z,4.87
2023-01-24T10:13:30.957Z,5.40
2023-01-24T10:16:25.862Z,8.68
2023-01-24T10:19:14.630Z,7.87
2023-01-24T10:21:47.945Z,9.55
2023-01-24T10:24:27.015Z,11.55
2023-01-24T10:26:58.657Z,8.05
2023-01-24T10:29:31.567Z,12.58
2023-01-24T10:32:10.529Z,13.70
2023-01-24T10:34:46.767Z,7.58
2023-01-24T10:37:26.504Z,11.45
2023-01-24T10:39:59.297Z,9.80
2023-01-24T10:42:32.593Z,7.08
2023-01-24T10:45:06.097Z,6.72
2023-01-24T10:47:58.844Z,10.35
2023-01-24T10:50:38.518Z,11.78
2023-01-24T10:53:26.886Z,12.07
2023-01-24T10:55:51.316Z,9.65
2023-01-24T10:58:45.969Z,12.65
2023-01-24T11:01:24.737Z,8.45
2023-01-24T11:03:56.691Z,7.67
2023-01-24T11:06:29.960Z,13.78
2023-01-24T11:09:06.068Z,15.65
2023-01-24T11:11:42.531Z,30.90
2023-01-24T11:14:17.065Z,11.57
2023-01-24T11:16:50.613Z,14.13
2023-01-24T11:19:30.027Z,30.55
2023-01-24T11:22:05.077Z,14.75
2023-01-24T11:24:38.541Z,16.50
2023-01-24T11:27:20.894Z,16.20
2023-01-24T11:30:12.088Z,11.12
2023-01-24T11:33:00.404Z,9.93
2023-01-24T11:35:43.629Z,11.63
2023-01-24T11:38:29.017Z,16.55
2023-01-24T11:41:05.380Z,15.30
2023-01-24T11:43:47.636Z,24.25
2023-01-24T11:46:25.110Z,12.35
2023-01-24T11:49:01.561Z,16.65
2023-01-24T11:51:57.818Z,13.48
2023-01-24T11:54:40.110Z,12.40
2023-01-24T11:57:16.653Z,18.37
2023-01-24T11:59:52.884Z,10.78
2023-01-24T12:02:51.231Z,11.57
2023-01-24T12:05:31.193Z,18.62
2023-01-24T12:08:25.631Z,9.28
2023-01-24T12:11:29.780Z,18.17
2023-01-24T12:14:00.485Z,14.95
2023-01-24T12:16:34.077Z,12.80
2023-01-24T12:19:31.806Z,13.18
2023-01-24T12:22:06.256Z,15.10
2023-01-24T12:24:44.558Z,14.80
2023-01-24T12:27:21.367Z,9.45
2023-01-24T12:33:00.903Z,19.87
2023-01-24T12:35:34.220Z,12.18
2023-01-24T12:38:10.284Z,15.55
2023-01-24T12:40:44.001Z,19.07
2023-01-24T12:43:27.134Z,14.58
2023-01-24T12:46:09.810Z,14.18
2023-01-24T12:49:14.596Z,12.63
2023-01-24T12:51:54.040Z,13.05
2023-01-24T12:54:42.464Z,12.28
2023-01-24T12:57:16.852Z,19.37
2023-01-24T12:59:48.892Z,10.18
2023-01-24T13:02:50.641Z,13.45
2023-01-24T13:05:51.245Z,11.48
2023-01-24T13:08:27.945Z,10.30
2023-01-24T13:11:14.193Z,9.03
2023-01-24T13:13:47.480Z,12.03
2023-01-24T13:16:35.534Z,7.00
2023-01-24T13:19:26.027Z,12.47
2023-01-24T13:21:59.301Z,9.40
2023-01-24T13:24:54.169Z,8.95
2023-01-24T13:27:30.610Z,10.68
2023-01-24T13:30:09.806Z,13.50
2023-01-24T13:32:41.811Z,9.50
2023-01-24T13:35:26.875Z,7.55
2023-01-24T13:38:00.738Z,11.43
2023-01-24T13:40:34.449Z,11.25
2023-01-24T13:43:06.154Z,9.93
2023-01-24T13:45:49.684Z,10.95
2023-01-24T13:48:46.817Z,12.55
2023-01-24T13:51:36.642Z,8.68
2023-01-24T13:54:22.153Z,9.50
2023-01-24T13:57:26.821Z,9.48
2023-01-24T14:00:15.561Z,10.38
2023-01-24T14:03:09.710Z,8.18
2023-01-24T14:06:00.268Z,12.35
2023-01-24T14:08:34.897Z,11.97
2023-01-24T14:11:24.127Z,7.70
2023-01-24T14:14:00.252Z,11.15
2023-01-24T14:16:34.078Z,9.10
2023-01-24T14:19:08.993Z,11.78
2023-01-24T14:21:51.018Z,8.23
2023-01-24T14:24:30.258Z,9.33
2023-01-24T14:27:04.205Z,15.00
2023-01-24T14:29:40.239Z,10.40
2023-01-24T14:32:28.289Z,15.83
2023-01-24T14:35:32.002Z,8.98
2023-01-24T14:38:17.523Z,7.37
2023-01-24T14:40:56.543Z,9.63
2023-01-24T14:43:29.825Z,10.10
2023-01-24T14:46:15.062Z,8.00
2023-01-24T14:48:46.048Z,9.45
2023-01-24T14:51:38.540Z,11.35
2023-01-24T14:53:56.069Z,9.85
2023-01-24T14:56:27.000Z,15.23
2023-01-24T14:59:16.498Z,14.03
2023-01-24T15:01:49.018Z,8.50
2023-01-24T15:04:29.504Z,11.50
2023-01-24T15:07:11.998Z,13.83
2023-01-24T15:09:43.785Z,9.10
2023-01-24T15:12:31.810Z,10.43
2023-01-24T15:15:04.753Z,14.68
2023-01-24T15:17:36.712Z,10.50
2023-01-24T15:20:14.486Z,11.73
2023-01-24T15:22:46.598Z,15.90
2023-01-24T15:25:25.669Z,11.57
2023-01-24T15:27:56.732Z,9.38
2023-01-24T15:30:29.020Z,16.57
2023-01-24T15:33:02.276Z,9.75
2023-01-24T15:35:38.220Z,13.35
2023-01-24T15:38:31.092Z,12.07
2023-01-24T15:41:19.108Z,10.00
2023-01-24T15:43:55.395Z,12.50
2023-01-24T15:46:52.049Z,12.45
2023-01-24T15:49:35.494Z,13.38
2023-01-24T15:52:12.161Z,12.60
2023-01-24T15:54:45.311Z,11.73
2023-01-24T15:57:21.354Z,15.48
2023-01-24T15:59:53.286Z,9.53
2023-01-24T16:02:26.563Z,14.85
2023-01-24T16:04:58.856Z,11.80
2023-01-24T16:07:29.007Z,11.30
2023-01-24T16:10:00.617Z,12.98
2023-01-24T16:12:34.307Z,12.35
2023-01-24T16:15:09.573Z,14.45
2023-01-24T16:17:39.044Z,11.10
2023-01-24T16:20:29.741Z,9.80
2023-01-24T16:23:00.691Z,13.35
2023-01-24T16:25:31.611Z,15.98
2023-01-24T16:28:02.649Z,13.98
2023-01-24T16:30:34.403Z,14.33
2023-01-24T16:33:05.554Z,11.90
2023-01-24T16:35:36.503Z,13.83
2023-01-24T16:38:07.426Z,12.10
2023-01-24T16:40:38.358Z,12.45
2023-01-24T16:43:10.904Z,13.22
2023-01-24T16:45:41.772Z,11.20
2023-01-24T16:48:12.672Z,12.93
2023-01-24T16:50:44.790Z,12.65
2023-01-24T16:53:16.856Z,11.63
2023-01-24T16:55:47.678Z,11.10
2023-01-24T16:58:18.383Z,11.43
2023-01-24T17:00:49.173Z,15.03
2023-01-24T17:03:19.999Z,14.28
2023-01-24T17:05:50.663Z,15.65
2023-01-24T17:08:21.375Z,13.18
2023-01-24T17:10:52.122Z,13.53
2023-01-24T17:13:22.798Z,13.13
2023-01-24T17:15:52.872Z,14.07
2023-01-24T17:18:23.668Z,15.23
2023-01-24T17:20:54.769Z,14.53
2023-01-24T17:23:25.484Z,13.62
2023-01-24T17:26:01.582Z,13.80
2023-01-24T17:28:32.425Z,15.88
2023-01-24T17:31:03.316Z,13.85
2023-01-24T17:33:34.038Z,19.00
2023-01-24T17:36:04.971Z,18.32
2023-01-24T17:38:36.957Z,16.00
2023-01-24T17:41:07.768Z,16.60
2023-01-24T17:43:51.830Z,17.65
2023-01-24T17:46:10.715Z,15.13
2023-01-24T17:48:41.682Z,15.93
2023-01-24T17:51:19.522Z,16.50
2023-01-24T17:53:50.744Z,15.65
2023-01-24T17:56:21.963Z,17.67
2023-01-24T17:58:52.680Z,17.07
2023-01-24T18:01:23.393Z,16.57
2023-01-24T18:03:54.083Z,15.83
2023-01-24T18:06:24.951Z,13.70
2023-01-24T18:08:56.268Z,15.88
2023-01-24T18:11:26.983Z,16.12
2023-01-24T18:13:58.012Z,14.60
2023-01-24T18:16:29.047Z,18.90
2023-01-24T18:19:00.340Z,15.68
2023-01-24T18:21:31.696Z,15.53
2023-01-24T18:24:04.272Z,15.88
2023-01-24T18:26:35.679Z,16.55
2023-01-24T18:29:06.476Z,16.37
2023-01-24T18:31:37.276Z,16.10
2023-01-24T18:34:08.354Z,19.55
2023-01-24T18:36:39.063Z,15.45
2023-01-24T18:39:09.909Z,15.90
2023-01-24T18:41:40.691Z,18.87
2023-01-24T18:44:13.249Z,17.10
2023-01-24T18:46:44.475Z,18.05
2023-01-24T18:49:15.504Z,20.15
2023-01-24T18:51:47.897Z,18.62
2023-01-24T18:54:19.576Z,16.52
2023-01-24T18:56:50.298Z,18.20
2023-01-24T18:59:21.229Z,19.73
2023-01-24T19:01:51.934Z,17.55
2023-01-24T19:04:22.693Z,17.65
2023-01-24T19:06:53.515Z,19.73
2023-01-24T19:09:24.456Z,15.40
2023-01-24T19:11:55.286Z,17.67
2023-01-24T19:14:27.550Z,16.25
2023-01-24T19:16:58.241Z,20.60
2023-01-24T19:19:28.985Z,16.15
2023-01-24T19:22:00.274Z,16.77
2023-01-24T19:24:32.351Z,17.10
2023-01-24T19:27:03.116Z,17.70
2023-01-24T19:29:33.944Z,16.37
2023-01-24T19:32:04.949Z,19.62
2023-01-24T19:34:35.803Z,21.05
2023-01-24T19:37:10.536Z,18.42
2023-01-24T19:39:41.235Z,18.87
2023-01-24T19:42:11.932Z,21.10
2023-01-24T19:44:43.022Z,18.05
2023-01-24T19:47:13.814Z,22.32
2023-01-24T19:49:44.798Z,19.60
2023-01-24T19:54:46.067Z,17.00
2023-01-24T19:57:16.857Z,21.27
2023-01-24T19:59:47.947Z,20.88
2023-01-24T20:02:18.782Z,22.13
2023-01-24T20:04:52.658Z,18.73
2023-01-24T20:07:22.044Z,21.05
2023-01-24T20:09:52.743Z,23.10
2023-01-24T20:12:23.562Z,20.52
2023-01-24T20:14:54.231Z,22.02
2023-01-24T20:17:25.036Z,20.72
2023-01-24T20:20:00.918Z,19.80
2023-01-24T20:22:28.259Z,20.92
2023-01-24T20:25:02.520Z,22.90
2023-01-24T20:27:31.806Z,20.32
2023-01-24T20:30:02.568Z,19.70
2023-01-24T20:32:35.889Z,21.30
2023-01-24T20:35:07.298Z,20.90
2023-01-24T20:37:38.533Z,20.25
2023-01-24T20:40:10.348Z,19.50
2023-01-24T20:42:42.440Z,22.35
2023-01-24T20:45:13.879Z,20.80
2023-01-24T20:47:44.653Z,22.52
2023-01-24T20:50:15.491Z,21.37
2023-01-24T20:52:46.293Z,23.90
2023-01-24T20:55:17.231Z,24.90
2023-01-24T20:57:47.935Z,22.48
2023-01-24T21:00:19.924Z,23.22
2023-01-24T21:02:55.758Z,23.25
2023-01-24T21:05:26.586Z,22.52
2023-01-24T21:07:57.323Z,20.52
2023-01-24T21:10:28.160Z,21.87
2023-01-24T21:12:58.952Z,22.45
2023-01-24T21:15:29.695Z,21.42
2023-01-24T21:18:00.474Z,23.65
2023-01-24T21:20:30.841Z,22.48
2023-01-24T21:23:01.884Z,21.02
2023-01-24T21:25:32.814Z,25.52
2023-01-24T21:28:03.736Z,23.27
2023-01-24T21:30:34.854Z,23.67
2023-01-24T21:33:05.699Z,21.80
2023-01-24T21:35:36.529Z,25.27
2023-01-24T21:38:07.455Z,22.70
2023-01-24T21:40:39.559Z,23.52
2023-01-24T21:43:10.284Z,28.45
2023-01-24T21:45:40.956Z,24.65
2023-01-24T21:48:11.646Z,25.55
2023-01-24T21:50:42.366Z,24.65
2023-01-24T21:53:15.005Z,29.52
2023-01-24T21:55:47.126Z,25.55
2023-01-24T21:58:17.783Z,23.40
2023-01-24T22:00:48.484Z,26.07
2023-01-24T22:03:28.146Z,24.45
2023-01-24T22:06:01.378Z,25.23
2023-01-24T22:08:33.983Z,28.60
2023-01-24T22:11:06.010Z,26.37
2023-01-24T22:13:36.704Z,26.50
2023-01-24T22:16:10.227Z,28.23
2023-01-24T22:18:41.851Z,24.32
2023-01-24T22:21:17.936Z,26.95
2023-01-24T22:23:54.522Z,26.80
2023-01-24T22:26:27.456Z,28.70
2023-01-24T22:28:58.638Z,28.75
2023-01-24T22:31:30.974Z,24.35
2023-01-24T22:34:02.095Z,28.70
2023-01-24T22:36:33.477Z,26.50
2023-01-24T22:39:04.145Z,30.10
2023-01-24T22:41:34.937Z,30.40
2023-01-24T22:44:05.736Z,27.35
2023-01-24T22:46:36.528Z,27.22
2023-01-24T22:49:07.516Z,28.98
2023-01-24T22:51:38.200Z,27.93
2023-01-24T22:54:09.048Z,24.57
2023-01-24T22:56:39.738Z,26.95
2023-01-24T22:59:10.668Z,28.10
2023-01-24T23:01:41.422Z,29.90
2023-01-24T23:04:12.104Z,27.48
2023-01-24T23:06:43.114Z,23.67
2023-01-24T23:09:14.715Z,29.18
2023-01-24T23:11:45.885Z,30.08
2023-01-24T23:14:36.187Z,30.00
2023-01-24T23:17:12.031Z,28.95
2023-01-24T23:22:46.217Z,31.75
2023-01-24T23:25:17.484Z,28.73
2023-01-24T23:27:51.178Z,27.45
2023-01-24T23:30:42.902Z,37.30
2023-01-24T23:33:28.167Z,35.17
2023-01-24T23:35:59.449Z,31.93
2023-01-24T23:38:31.523Z,38.45
2023-01-24T23:41:02.195Z,31.35
2023-01-24T23:43:32.978Z,31.50
2023-01-24T23:46:03.988Z,27.60
2023-01-24T23:48:34.669Z,34.13
2023-01-24T23:51:05.980Z,25.95
2023-01-24T23:53:36.865Z,35.85
2023-01-24T23:56:08.204Z,39.60
2023-01-24T23:58:38.878Z,36.10
